| time (UTC) | temp C | wind direction | speed KPH | gust KPH | rain 1hr cm | rain 24hr cm | rain mn cm | humidity % | barometer mb |
| 20260503230345 | 25 | 311 | 1.6 | 3.2 | 0.00 | 0.00 | 0.00 | 31 | 1012.3 |
| 20260503225350 | 25 | 215 | 1.6 | 3.2 | 0.00 | 0.00 | 0.00 | 35 | 1012.5 |
| 20260503224403 | 25 | 256 | 1.6 | 4.8 | 0.00 | 0.00 | 0.00 | 32 | 1012.6 |
| 20260503223348 | 25 | 300 | 0.0 | 4.8 | 0.00 | 0.00 | 0.00 | 32 | 1012.8 |
| 20260503222342 | 24 | 233 | 1.6 | 4.8 | 0.00 | 0.00 | 0.00 | 33 | 1013.0 |
| 20260503221346 | 24 | 269 | 1.6 | 4.8 | 0.00 | 0.00 | 0.00 | 33 | 1013.1 |
| 20260503220351 | 24 | 214 | 1.6 | 4.8 | 0.00 | 0.00 | 0.00 | 33 | 1013.3 |
| 20260503215344 | 24 | 258 | 1.6 | 3.2 | 0.00 | 0.00 | 0.00 | 34 | 1013.4 |
| 20260503214349 | 23 | 285 | 3.2 | 4.8 | 0.00 | 0.00 | 0.00 | 34 | 1013.5 |
| 20260503213343 | 23 | 243 | 4.8 | 8.0 | 0.00 | 0.00 | 0.00 | 33 | 1013.7 |
| 20260503212347 | 23 | 225 | 1.6 | 4.8 | 0.00 | 0.00 | 0.00 | 34 | 1013.7 |
| 20260503211351 | 23 | 298 | 3.2 | 6.4 | 0.00 | 0.00 | 0.00 | 34 | 1013.8 |
| 20260503210345 | 23 | 280 | 3.2 | 8.0 | 0.00 | 0.00 | 0.00 | 34 | 1013.8 |
| 20260503205350 | 23 | 332 | 0.0 | 4.8 | 0.00 | 0.00 | 0.00 | 35 | 1013.9 |
| 20260503204344 | 23 | 316 | 1.6 | 4.8 | 0.00 | 0.00 | 0.00 | 34 | 1013.9 |
| 20260503203348 | 23 | 246 | 4.8 | 8.0 | 0.00 | 0.00 | 0.00 | 34 | 1013.9 |
| 20260503202342 | 23 | 304 | 1.6 | 4.8 | 0.00 | 0.00 | 0.00 | 37 | 1013.9 |
| 20260503201347 | 23 | 353 | 1.6 | 4.8 | 0.00 | 0.00 | 0.00 | 35 | 1013.9 |
| 20260503200401 | 23 | 303 | 0.0 | 4.8 | 0.00 | 0.00 | 0.00 | 37 | 1014.1 |
| 20260503195345 | 23 | 283 | 3.2 | 4.8 | 0.00 | 0.00 | 0.00 | 38 | 1014.2 |
| 20260503194350 | 23 | 248 | 1.6 | 8.0 | 0.00 | 0.00 | 0.00 | 39 | 1014.4 |
| 20260503193343 | 23 | 279 | 1.6 | 6.4 | 0.00 | 0.00 | 0.00 | 40 | 1014.5 |
| 20260503192348 | 23 | 338 | 1.6 | 6.4 | 0.00 | 0.00 | 0.00 | 39 | 1014.6 |
| 20260503191343 | 23 | 282 | 0.0 | 3.2 | 0.00 | 0.00 | 0.00 | 40 | 1014.7 |
| 20260503190346 | 23 | 17 | 1.6 | 4.8 | 0.00 | 0.00 | 0.00 | 39 | 1014.7 |
| 20260503185411 | 22 | 71 | 1.6 | 6.4 | 0.00 | 0.00 | 0.00 | 40 | 1014.8 |
| 20260503184404 | 22 | 256 | 1.6 | 4.8 | 0.00 | 0.00 | 0.00 | 40 | 1014.9 |
| 20260503183349 | 22 | 351 | 1.6 | 6.4 | 0.00 | 0.00 | 0.00 | 42 | 1015.1 |
| 20260503182343 | 22 | 358 | 0.0 | 4.8 | 0.00 | 0.00 | 0.00 | 39 | 1015.2 |
| 20260503181348 | 22 | 353 | 1.6 | 4.8 | 0.00 | 0.00 | 0.00 | 40 | 1015.3 |
| 20260503180341 | 22 | 205 | 1.6 | 4.8 | 0.00 | 0.00 | 0.00 | 44 | 1015.4 |
| 20260503175345 | 22 | 292 | 1.6 | 4.8 | 0.00 | 0.00 | 0.00 | 42 | 1015.5 |
| 20260503174351 | 21 | 87 | 1.6 | 4.8 | 0.00 | 0.00 | 0.00 | 44 | 1015.6 |
| 20260503173344 | 21 | 283 | 3.2 | 4.8 | 0.00 | 0.00 | 0.00 | 42 | 1015.6 |
| 20260503172349 | 21 | 321 | 3.2 | 4.8 | 0.00 | 0.00 | 0.00 | 43 | 1015.7 |
| 20260503171343 | 21 | 344 | 0.0 | 8.0 | 0.00 | 0.00 | 0.00 | 47 | 1015.7 |
| 20260503170347 | 21 | 360 | 1.6 | 4.8 | 0.00 | 0.00 | 0.00 | 44 | 1015.8 |
| 20260503150348 | 13 | 129 | 0.0 | 1.6 | 0.00 | 0.00 | 0.00 | 79 | 1016.4 |
| 20260503131342 | 10 | 172 | 3.2 | 3.2 | 0.00 | 0.00 | 0.00 | 76 | 1015.8 |
| 20260503130407 | 10 | 0.0 | 0.0 | 0.00 | 0.00 | 0.00 | 78 | 1015.8 | |
| 20260503110347 | 11 | 0.0 | 0.0 | 0.00 | 0.00 | 0.00 | 68 | 1015.8 | |
| 20260503090349 | 12 | 151 | 3.2 | 8.0 | 0.00 | 0.00 | 0.00 | 63 | 1015.5 |
| 20260503081350 | 12 | 210 | 1.6 | 8.0 | 0.00 | 0.00 | 0.00 | 66 | 1015.5 |
| 20260503080344 | 12 | 207 | 1.6 | 4.8 | 0.00 | 0.00 | 0.00 | 67 | 1015.4 |
| 20260503072341 | 12 | 221 | 3.2 | 4.8 | 0.00 | 0.00 | 0.00 | 70 | 1015.4 |
| 20260503071345 | 12 | 244 | 1.6 | 4.8 | 0.00 | 0.00 | 0.00 | 71 | 1015.4 |
| 20260503070351 | 12 | 246 | 1.6 | 4.8 | 0.00 | 0.00 | 0.00 | 71 | 1015.4 |
| 20260503054343 | 13 | 255 | 3.2 | 4.8 | 0.00 | 0.00 | 0.00 | 65 | 1015.4 |
| 20260503053347 | 14 | 246 | 3.2 | 4.8 | 0.00 | 0.00 | 0.00 | 63 | 1015.4 |
| 20260503052341 | 14 | 265 | 1.6 | 4.8 | 0.00 | 0.00 | 0.00 | 63 | 1015.5 |
| 20260503051346 | 14 | 277 | 1.6 | 4.8 | 0.00 | 0.00 | 0.00 | 63 | 1015.5 |
| 20260503050350 | 15 | 239 | 0.0 | 4.8 | 0.00 | 0.00 | 0.00 | 65 | 1015.5 |
| 20260503045404 | 15 | 246 | 3.2 | 6.4 | 0.00 | 0.00 | 0.00 | 64 | 1015.4 |
| 20260503044349 | 15 | 238 | 1.6 | 3.2 | 0.00 | 0.00 | 0.00 | 62 | 1015.4 |
| 20260503043342 | 15 | 184 | 1.6 | 6.4 | 0.00 | 0.00 | 0.00 | 62 | 1015.3 |
| 20260503042348 | 15 | 207 | 1.6 | 4.8 | 0.00 | 0.00 | 0.00 | 65 | 1015.3 |
| 20260503041402 | 15 | 134 | 1.6 | 4.8 | 0.00 | 0.00 | 0.00 | 62 | 1015.2 |
| 20260503040406 | 16 | 0.0 | 3.2 | 0.00 | 0.00 | 0.00 | 59 | 1015.1 | |
| 20260503035412 | 16 | 123 | 0.0 | 4.8 | 0.00 | 0.00 | 0.00 | 59 | 1015.0 |
| 20260503034345 | 16 | 173 | 0.0 | 1.6 | 0.00 | 0.00 | 0.00 | 54 | 1014.9 |
| 20260503033350 | 17 | 135 | 0.0 | 1.6 | 0.00 | 0.00 | 0.00 | 51 | 1014.7 |
| 20260503032344 | 17 | 137 | 1.6 | 1.6 | 0.00 | 0.00 | 0.00 | 49 | 1014.7 |
| 20260503031348 | 18 | 135 | 0.0 | 1.6 | 0.00 | 0.00 | 0.00 | 48 | 1014.6 |
| 20260503030402 | 18 | 0.0 | 0.0 | 0.00 | 0.00 | 0.00 | 46 | 1014.7 | |
| 20260503025347 | 18 | 0.0 | 0.0 | 0.00 | 0.00 | 0.00 | 45 | 1014.5 | |
| 20260503024411 | 19 | 0.0 | 0.0 | 0.00 | 0.00 | 0.00 | 45 | 1014.6 | |
| 20260503023345 | 19 | 0.0 | 0.0 | 0.00 | 0.00 | 0.00 | 43 | 1014.6 | |
| 20260503022349 | 20 | 0.0 | 0.0 | 0.00 | 0.00 | 0.00 | 42 | 1014.6 | |
| 20260503021343 | 20 | 0.0 | 0.0 | 0.00 | 0.00 | 0.00 | 43 | 1014.7 | |
| 20260503020408 | 20 | 0.0 | 1.6 | 0.00 | 0.00 | 0.00 | 41 | 1014.8 | |
| 20260503015401 | 20 | 0.0 | 0.0 | 0.00 | 0.00 | 0.00 | 39 | 1014.8 | |
| 20260503014346 | 20 | 236 | 0.0 | 1.6 | 0.00 | 0.00 | 0.00 | 37 | 1014.9 |
| 20260503013351 | 21 | 0.0 | 1.6 | 0.00 | 0.00 | 0.00 | 36 | 1015.0 | |
| 20260503012345 | 21 | 191 | 0.0 | 3.2 | 0.00 | 0.00 | 0.00 | 34 | 1015.1 |
| 20260503011349 | 21 | 0.0 | 0.0 | 0.00 | 0.00 | 0.00 | 33 | 1015.1 | |
| 20260503010342 | 21 | 239 | 1.6 | 3.2 | 0.00 | 0.00 | 0.00 | 33 | 1015.1 |
| 20260503005347 | 21 | 0.0 | 0.0 | 0.00 | 0.00 | 0.00 | 32 | 1015.2 | |
| 20260503004341 | 22 | 0.0 | 3.2 | 0.00 | 0.00 | 0.00 | 31 | 1015.2 | |
| 20260503003346 | 22 | 50 | 1.6 | 3.2 | 0.00 | 0.00 | 0.00 | 31 | 1015.2 |
| 20260503002411 | 22 | 296 | 1.6 | 3.2 | 0.00 | 0.00 | 0.00 | 30 | 1015.3 |
| 20260503001345 | 22 | 276 | 1.6 | 4.8 | 0.00 | 0.00 | 0.00 | 31 | 1015.3 |
| 20260503000349 | 23 | 301 | 0.0 | 1.6 | 0.00 | 0.00 | 0.00 | 33 | 1015.4 |
| 20260502235343 | 23 | 323 | 0.0 | 3.2 | 0.00 | 0.00 | 0.00 | 34 | 1015.4 |
| 20260502234347 | 23 | 300 | 0.0 | 3.2 | 0.00 | 0.00 | 0.00 | 35 | 1015.5 |
| 20260502233401 | 23 | 260 | 1.6 | 3.2 | 0.00 | 0.00 | 0.00 | 33 | 1015.7 |
| 20260502232346 | 23 | 61 | 1.6 | 4.8 | 0.00 | 0.00 | 0.00 | 36 | 1015.7 |
| 20260502231351 | 22 | 245 | 1.6 | 4.8 | 0.00 | 0.00 | 0.00 | 37 | 1015.9 |